sensor_id;sensor_type;location;lat;lon;timestamp;temperature;humidity
9820;DHT22;4949;48.482;9.206;2023-04-24T00:02:59;13.20;62.30
9820;DHT22;4949;48.482;9.206;2023-04-24T00:12:33;13.30;62.00
9820;DHT22;4949;48.482;9.206;2023-04-24T00:17:34;13.30;61.80
9820;DHT22;4949;48.482;9.206;2023-04-24T00:22:39;13.30;61.40
9820;DHT22;4949;48.482;9.206;2023-04-24T00:27:40;13.30;61.60
9820;DHT22;4949;48.482;9.206;2023-04-24T00:37:43;13.20;61.90
9820;DHT22;4949;48.482;9.206;2023-04-24T00:42:44;13.10;63.00
9820;DHT22;4949;48.482;9.206;2023-04-24T00:47:45;13.20;62.40
9820;DHT22;4949;48.482;9.206;2023-04-24T00:52:47;13.30;62.70
9820;DHT22;4949;48.482;9.206;2023-04-24T01:01:58;13.30;62.30
9820;DHT22;4949;48.482;9.206;2023-04-24T01:07:01;13.30;62.90
9820;DHT22;4949;48.482;9.206;2023-04-24T01:12:02;13.30;62.20
9820;DHT22;4949;48.482;9.206;2023-04-24T01:17:03;13.30;63.30
9820;DHT22;4949;48.482;9.206;2023-04-24T01:25:44;13.20;65.00
9820;DHT22;4949;48.482;9.206;2023-04-24T01:30:46;13.10;67.20
9820;DHT22;4949;48.482;9.206;2023-04-24T01:35:49;13.00;69.60
9820;DHT22;4949;48.482;9.206;2023-04-24T01:40:54;12.90;71.10
9820;DHT22;4949;48.482;9.206;2023-04-24T01:49:58;12.90;72.80
9820;DHT22;4949;48.482;9.206;2023-04-24T01:55:05;12.90;71.40
9820;DHT22;4949;48.482;9.206;2023-04-24T02:00:09;12.90;70.10
9820;DHT22;4949;48.482;9.206;2023-04-24T02:05:14;12.90;69.40
9820;DHT22;4949;48.482;9.206;2023-04-24T02:13:52;12.90;69.50
9820;DHT22;4949;48.482;9.206;2023-04-24T02:18:56;12.70;70.70
9820;DHT22;4949;48.482;9.206;2023-04-24T02:23:57;12.70;71.60
9820;DHT22;4949;48.482;9.206;2023-04-24T02:28:57;12.60;72.80
9820;DHT22;4949;48.482;9.206;2023-04-24T02:38:18;12.50;74.30
9820;DHT22;4949;48.482;9.206;2023-04-24T02:43:21;12.30;75.10
9820;DHT22;4949;48.482;9.206;2023-04-24T02:48:22;12.30;75.30
9820;DHT22;4949;48.482;9.206;2023-04-24T02:53:24;12.30;75.40
9820;DHT22;4949;48.482;9.206;2023-04-24T03:03:40;12.20;74.60
9820;DHT22;4949;48.482;9.206;2023-04-24T03:08:46;12.20;75.00
9820;DHT22;4949;48.482;9.206;2023-04-24T03:13:47;12.20;75.00
9820;DHT22;4949;48.482;9.206;2023-04-24T03:18:50;12.10;75.40
9820;DHT22;4949;48.482;9.206;2023-04-24T03:28:53;12.00;77.50
9820;DHT22;4949;48.482;9.206;2023-04-24T03:33:56;11.80;81.00
9820;DHT22;4949;48.482;9.206;2023-04-24T03:39:00;11.80;80.90
9820;DHT22;4949;48.482;9.206;2023-04-24T03:44:03;11.70;79.70
9820;DHT22;4949;48.482;9.206;2023-04-24T03:51:44;11.60;79.50
9820;DHT22;4949;48.482;9.206;2023-04-24T03:56:47;11.80;78.40
9820;DHT22;4949;48.482;9.206;2023-04-24T04:01:49;11.70;78.90
9820;DHT22;4949;48.482;9.206;2023-04-24T04:06:52;11.70;78.30
9820;DHT22;4949;48.482;9.206;2023-04-24T04:15:43;11.70;78.90
9820;DHT22;4949;48.482;9.206;2023-04-24T04:20:51;11.60;78.20
9820;DHT22;4949;48.482;9.206;2023-04-24T04:25:54;11.60;78.50
9820;DHT22;4949;48.482;9.206;2023-04-24T04:30:55;11.60;78.50
9820;DHT22;4949;48.482;9.206;2023-04-24T04:39:22;11.50;80.00
9820;DHT22;4949;48.482;9.206;2023-04-24T04:44:25;11.40;80.80
9820;DHT22;4949;48.482;9.206;2023-04-24T04:49:32;11.50;80.60
9820;DHT22;4949;48.482;9.206;2023-04-24T04:54:32;11.40;81.20
9820;DHT22;4949;48.482;9.206;2023-04-24T05:03:48;11.40;82.30
9820;DHT22;4949;48.482;9.206;2023-04-24T05:08:49;11.10;85.10
9820;DHT22;4949;48.482;9.206;2023-04-24T05:13:56;11.10;84.60
9820;DHT22;4949;48.482;9.206;2023-04-24T05:19:01;11.00;81.10
9820;DHT22;4949;48.482;9.206;2023-04-24T05:25:44;10.90;80.80
9820;DHT22;4949;48.482;9.206;2023-04-24T05:30:47;11.00;78.40
9820;DHT22;4949;48.482;9.206;2023-04-24T05:35:50;10.80;77.90
9820;DHT22;4949;48.482;9.206;2023-04-24T05:40:54;10.60;79.30
9820;DHT22;4949;48.482;9.206;2023-04-24T05:49:42;10.50;80.20
9820;DHT22;4949;48.482;9.206;2023-04-24T05:54:46;10.50;78.90
9820;DHT22;4949;48.482;9.206;2023-04-24T05:59:49;10.50;78.30
9820;DHT22;4949;48.482;9.206;2023-04-24T06:04:49;10.70;79.60
9820;DHT22;4949;48.482;9.206;2023-04-24T06:12:53;10.50;78.70
9820;DHT22;4949;48.482;9.206;2023-04-24T06:17:57;10.50;77.40
9820;DHT22;4949;48.482;9.206;2023-04-24T06:22:57;10.50;78.40
9820;DHT22;4949;48.482;9.206;2023-04-24T06:27:58;10.60;79.00
9820;DHT22;4949;48.482;9.206;2023-04-24T06:37:04;10.60;78.30
9820;DHT22;4949;48.482;9.206;2023-04-24T06:42:10;10.90;78.90
9820;DHT22;4949;48.482;9.206;2023-04-24T06:47:13;10.80;77.90
9820;DHT22;4949;48.482;9.206;2023-04-24T06:52:22;10.90;76.90
9820;DHT22;4949;48.482;9.206;2023-04-24T06:59:53;10.90;76.00
9820;DHT22;4949;48.482;9.206;2023-04-24T07:04:55;11.00;75.40
9820;DHT22;4949;48.482;9.206;2023-04-24T07:09:57;11.00;75.30
9820;DHT22;4949;48.482;9.206;2023-04-24T07:14:59;11.00;74.90
9820;DHT22;4949;48.482;9.206;2023-04-24T07:24:14;11.20;75.20
9820;DHT22;4949;48.482;9.206;2023-04-24T07:29:15;11.20;73.30
9820;DHT22;4949;48.482;9.206;2023-04-24T07:34:18;11.30;74.00
9820;DHT22;4949;48.482;9.206;2023-04-24T07:44:31;11.20;75.20
9820;DHT22;4949;48.482;9.206;2023-04-24T07:49:35;10.90;78.70
9820;DHT22;4949;48.482;9.206;2023-04-24T07:54:43;11.00;80.30
9820;DHT22;4949;48.482;9.206;2023-04-24T07:59:47;11.00;77.00
9820;DHT22;4949;48.482;9.206;2023-04-24T08:08:12;11.00;77.70
9820;DHT22;4949;48.482;9.206;2023-04-24T08:13:14;11.10;73.70
9820;DHT22;4949;48.482;9.206;2023-04-24T08:18:14;11.20;71.70
9820;DHT22;4949;48.482;9.206;2023-04-24T08:23:36;11.40;71.70
9820;DHT22;4949;48.482;9.206;2023-04-24T08:32:08;11.60;69.60
9820;DHT22;4949;48.482;9.206;2023-04-24T08:37:11;11.50;66.60
9820;DHT22;4949;48.482;9.206;2023-04-24T08:42:20;11.40;67.10
9820;DHT22;4949;48.482;9.206;2023-04-24T08:47:30;11.20;65.60
9820;DHT22;4949;48.482;9.206;2023-04-24T08:54:20;11.10;63.40
9820;DHT22;4949;48.482;9.206;2023-04-24T08:59:22;11.00;63.00
9820;DHT22;4949;48.482;9.206;2023-04-24T09:04:25;11.00;61.60
9820;DHT22;4949;48.482;9.206;2023-04-24T09:09:29;11.00;61.40
9820;DHT22;4949;48.482;9.206;2023-04-24T09:18:38;11.00;61.20
9820;DHT22;4949;48.482;9.206;2023-04-24T09:23:39;11.20;61.30
9820;DHT22;4949;48.482;9.206;2023-04-24T09:28:40;11.30;62.70
9820;DHT22;4949;48.482;9.206;2023-04-24T09:39:25;11.40;61.90
9820;DHT22;4949;48.482;9.206;2023-04-24T09:44:29;11.20;60.20
9820;DHT22;4949;48.482;9.206;2023-04-24T09:49:31;11.10;60.80
9820;DHT22;4949;48.482;9.206;2023-04-24T09:54:37;11.20;61.00
9820;DHT22;4949;48.482;9.206;2023-04-24T09:59:43;11.50;62.10
9820;DHT22;4949;48.482;9.206;2023-04-24T10:04:56;11.40;59.80
9820;DHT22;4949;48.482;9.206;2023-04-24T10:09:59;11.40;59.40
9820;DHT22;4949;48.482;9.206;2023-04-24T10:15:03;11.50;59.00
9820;DHT22;4949;48.482;9.206;2023-04-24T10:20:06;11.80;59.40
9820;DHT22;4949;48.482;9.206;2023-04-24T10:25:08;11.90;59.20
9820;DHT22;4949;48.482;9.206;2023-04-24T10:30:14;12.00;58.20
9820;DHT22;4949;48.482;9.206;2023-04-24T10:35:15;12.00;56.90
9820;DHT22;4949;48.482;9.206;2023-04-24T10:40:26;12.10;57.40
9820;DHT22;4949;48.482;9.206;2023-04-24T10:45:32;12.40;53.50
9820;DHT22;4949;48.482;9.206;2023-04-24T10:50:46;12.40;52.80
9820;DHT22;4949;48.482;9.206;2023-04-24T11:01:02;12.40;53.70
9820;DHT22;4949;48.482;9.206;2023-04-24T11:06:08;12.30;54.40
9820;DHT22;4949;48.482;9.206;2023-04-24T11:11:12;12.10;55.00
9820;DHT22;4949;48.482;9.206;2023-04-24T11:21:24;11.90;57.00
9820;DHT22;4949;48.482;9.206;2023-04-24T11:26:25;11.90;57.50
9820;DHT22;4949;48.482;9.206;2023-04-24T11:31:40;12.00;56.70
9820;DHT22;4949;48.482;9.206;2023-04-24T11:36:46;12.20;57.10
9820;DHT22;4949;48.482;9.206;2023-04-24T11:41:48;12.30;57.20
9820;DHT22;4949;48.482;9.206;2023-04-24T11:46:53;12.40;56.10
9820;DHT22;4949;48.482;9.206;2023-04-24T11:51:56;12.10;55.20
9820;DHT22;4949;48.482;9.206;2023-04-24T11:57:04;11.90;55.80
9820;DHT22;4949;48.482;9.206;2023-04-24T12:02:28;11.80;56.20
9820;DHT22;4949;48.482;9.206;2023-04-24T12:07:29;11.80;57.00
9820;DHT22;4949;48.482;9.206;2023-04-24T12:12:44;11.90;56.90
9820;DHT22;4949;48.482;9.206;2023-04-24T12:17:47;11.90;57.10
9820;DHT22;4949;48.482;9.206;2023-04-24T12:22:52;11.70;57.10
9820;DHT22;4949;48.482;9.206;2023-04-24T12:33:04;11.80;57.50
9820;DHT22;4949;48.482;9.206;2023-04-24T12:38:09;11.90;56.60
9820;DHT22;4949;48.482;9.206;2023-04-24T12:43:14;11.80;55.90
9820;DHT22;4949;48.482;9.206;2023-04-24T12:48:16;11.90;56.30
9820;DHT22;4949;48.482;9.206;2023-04-24T12:53:21;12.00;55.40
9820;DHT22;4949;48.482;9.206;2023-04-24T12:58:22;12.00;55.70
9820;DHT22;4949;48.482;9.206;2023-04-24T13:03:22;12.10;56.10
9820;DHT22;4949;48.482;9.206;2023-04-24T13:08:26;12.00;55.40
9820;DHT22;4949;48.482;9.206;2023-04-24T13:13:31;12.30;55.40
9820;DHT22;4949;48.482;9.206;2023-04-24T13:18:32;12.70;54.40
9820;DHT22;4949;48.482;9.206;2023-04-24T13:23:32;13.10;53.50
9820;DHT22;4949;48.482;9.206;2023-04-24T13:28:35;13.40;53.00
9820;DHT22;4949;48.482;9.206;2023-04-24T13:33:36;13.90;52.60
9820;DHT22;4949;48.482;9.206;2023-04-24T13:38:37;13.90;51.60
9820;DHT22;4949;48.482;9.206;2023-04-24T13:43:38;13.70;51.00
9820;DHT22;4949;48.482;9.206;2023-04-24T13:48:39;13.30;51.60
9820;DHT22;4949;48.482;9.206;2023-04-24T13:53:39;13.10;52.10
9820;DHT22;4949;48.482;9.206;2023-04-24T13:58:40;13.00;51.80
9820;DHT22;4949;48.482;9.206;2023-04-24T14:03:42;13.00;52.10
9820;DHT22;4949;48.482;9.206;2023-04-24T14:08:43;13.10;52.70
9820;DHT22;4949;48.482;9.206;2023-04-24T14:13:47;13.10;52.00
9820;DHT22;4949;48.482;9.206;2023-04-24T14:18:51;13.00;52.40
9820;DHT22;4949;48.482;9.206;2023-04-24T14:23:54;12.80;52.70
9820;DHT22;4949;48.482;9.206;2023-04-24T14:28:55;12.70;52.70
9820;DHT22;4949;48.482;9.206;2023-04-24T14:33:59;12.60;52.80
9820;DHT22;4949;48.482;9.206;2023-04-24T14:38:59;12.60;53.30
9820;DHT22;4949;48.482;9.206;2023-04-24T14:44:03;12.60;53.10
9820;DHT22;4949;48.482;9.206;2023-04-24T14:49:04;12.70;53.30
9820;DHT22;4949;48.482;9.206;2023-04-24T14:54:05;12.70;52.80
9820;DHT22;4949;48.482;9.206;2023-04-24T14:59:08;12.90;53.00
9820;DHT22;4949;48.482;9.206;2023-04-24T15:04:11;13.00;53.10
9820;DHT22;4949;48.482;9.206;2023-04-24T15:09:12;13.00;52.70
9820;DHT22;4949;48.482;9.206;2023-04-24T15:14:16;13.10;53.10
9820;DHT22;4949;48.482;9.206;2023-04-24T15:19:20;13.20;53.30
9820;DHT22;4949;48.482;9.206;2023-04-24T15:24:21;13.00;52.60
9820;DHT22;4949;48.482;9.206;2023-04-24T15:29:24;13.00;53.20
9820;DHT22;4949;48.482;9.206;2023-04-24T15:34:26;12.90;53.70
9820;DHT22;4949;48.482;9.206;2023-04-24T15:39:29;12.80;53.70
9820;DHT22;4949;48.482;9.206;2023-04-24T15:44:30;12.90;53.90
9820;DHT22;4949;48.482;9.206;2023-04-24T15:49:31;12.80;53.20
9820;DHT22;4949;48.482;9.206;2023-04-24T15:54:34;12.80;52.60
9820;DHT22;4949;48.482;9.206;2023-04-24T15:59:35;12.70;53.60
9820;DHT22;4949;48.482;9.206;2023-04-24T16:04:36;12.70;53.70
9820;DHT22;4949;48.482;9.206;2023-04-24T16:09:37;12.70;53.60
9820;DHT22;4949;48.482;9.206;2023-04-24T16:14:38;12.90;54.00
9820;DHT22;4949;48.482;9.206;2023-04-24T16:19:41;12.90;53.80
9820;DHT22;4949;48.482;9.206;2023-04-24T16:24:46;12.90;53.60
9820;DHT22;4949;48.482;9.206;2023-04-24T16:29:50;13.00;53.80
9820;DHT22;4949;48.482;9.206;2023-04-24T16:34:51;13.10;53.40
9820;DHT22;4949;48.482;9.206;2023-04-24T16:39:54;13.10;53.70
9820;DHT22;4949;48.482;9.206;2023-04-24T16:44:57;13.10;53.80
9820;DHT22;4949;48.482;9.206;2023-04-24T16:49:58;13.20;53.80
9820;DHT22;4949;48.482;9.206;2023-04-24T16:55:01;13.10;53.40
9820;DHT22;4949;48.482;9.206;2023-04-24T17:00:08;13.10;54.00
9820;DHT22;4949;48.482;9.206;2023-04-24T17:05:09;13.30;53.80
9820;DHT22;4949;48.482;9.206;2023-04-24T17:10:14;13.30;53.30
9820;DHT22;4949;48.482;9.206;2023-04-24T17:15:15;13.50;53.40
9820;DHT22;4949;48.482;9.206;2023-04-24T17:20:18;13.30;53.40
9820;DHT22;4949;48.482;9.206;2023-04-24T17:25:24;13.20;53.40
9820;DHT22;4949;48.482;9.206;2023-04-24T17:30:27;13.00;52.90
9820;DHT22;4949;48.482;9.206;2023-04-24T17:35:30;13.10;53.10
9820;DHT22;4949;48.482;9.206;2023-04-24T17:40:37;13.20;53.50
9820;DHT22;4949;48.482;9.206;2023-04-24T17:45:40;13.20;53.90
9820;DHT22;4949;48.482;9.206;2023-04-24T17:50:45;13.30;54.10
9820;DHT22;4949;48.482;9.206;2023-04-24T17:55:45;13.20;54.00
9820;DHT22;4949;48.482;9.206;2023-04-24T18:00:48;13.00;54.20
9820;DHT22;4949;48.482;9.206;2023-04-24T18:05:52;13.00;54.70
9820;DHT22;4949;48.482;9.206;2023-04-24T18:10:53;12.90;54.10
9820;DHT22;4949;48.482;9.206;2023-04-24T18:15:56;13.00;54.30
9820;DHT22;4949;48.482;9.206;2023-04-24T18:20:57;12.90;60.60
9820;DHT22;4949;48.482;9.206;2023-04-24T18:25:58;13.40;63.60
9820;DHT22;4949;48.482;9.206;2023-04-24T18:30:59;13.60;54.80
9820;DHT22;4949;48.482;9.206;2023-04-24T18:36:01;13.10;55.20
9820;DHT22;4949;48.482;9.206;2023-04-24T18:41:03;12.70;56.00
9820;DHT22;4949;48.482;9.206;2023-04-24T18:46:06;12.60;56.30
9820;DHT22;4949;48.482;9.206;2023-04-24T18:51:07;12.30;57.30
9820;DHT22;4949;48.482;9.206;2023-04-24T18:56:09;12.00;58.30
9820;DHT22;4949;48.482;9.206;2023-04-24T19:01:12;11.80;60.60
9820;DHT22;4949;48.482;9.206;2023-04-24T19:06:13;11.50;61.80
9820;DHT22;4949;48.482;9.206;2023-04-24T19:11:16;11.50;62.70
9820;DHT22;4949;48.482;9.206;2023-04-24T19:16:19;11.50;63.10
9820;DHT22;4949;48.482;9.206;2023-04-24T19:21:25;11.20;64.40
9820;DHT22;4949;48.482;9.206;2023-04-24T19:26:32;11.20;65.30
9820;DHT22;4949;48.482;9.206;2023-04-24T19:31:33;11.10;66.00
9820;DHT22;4949;48.482;9.206;2023-04-24T19:36:36;11.20;65.50
9820;DHT22;4949;48.482;9.206;2023-04-24T19:41:37;11.20;65.50
9820;DHT22;4949;48.482;9.206;2023-04-24T19:46:41;11.20;65.30
9820;DHT22;4949;48.482;9.206;2023-04-24T19:51:41;11.20;65.10
9820;DHT22;4949;48.482;9.206;2023-04-24T19:56:44;11.20;65.80
9820;DHT22;4949;48.482;9.206;2023-04-24T20:01:45;11.20;66.00
9820;DHT22;4949;48.482;9.206;2023-04-24T20:06:48;11.20;65.80
9820;DHT22;4949;48.482;9.206;2023-04-24T20:11:52;11.10;66.10
9820;DHT22;4949;48.482;9.206;2023-04-24T20:16:58;11.10;65.70
9820;DHT22;4949;48.482;9.206;2023-04-24T20:22:01;11.10;65.60
9820;DHT22;4949;48.482;9.206;2023-04-24T20:27:07;11.10;65.10
9820;DHT22;4949;48.482;9.206;2023-04-24T20:32:08;11.10;65.60
9820;DHT22;4949;48.482;9.206;2023-04-24T20:37:08;11.00;65.90
9820;DHT22;4949;48.482;9.206;2023-04-24T20:42:12;11.00;66.10
9820;DHT22;4949;48.482;9.206;2023-04-24T20:47:13;11.00;66.30
9820;DHT22;4949;48.482;9.206;2023-04-24T20:52:14;10.80;66.80
9820;DHT22;4949;48.482;9.206;2023-04-24T20:57:17;10.80;67.70
9820;DHT22;4949;48.482;9.206;2023-04-24T21:02:18;10.70;68.20
9820;DHT22;4949;48.482;9.206;2023-04-24T21:07:21;10.50;68.70
9820;DHT22;4949;48.482;9.206;2023-04-24T21:12:26;10.50;69.30
9820;DHT22;4949;48.482;9.206;2023-04-24T21:17:27;10.50;69.90
9820;DHT22;4949;48.482;9.206;2023-04-24T21:22:32;10.10;69.90
9820;DHT22;4949;48.482;9.206;2023-04-24T21:27:36;10.00;70.10
9820;DHT22;4949;48.482;9.206;2023-04-24T21:32:37;10.00;70.60
9820;DHT22;4949;48.482;9.206;2023-04-24T21:37:42;9.90;72.20
9820;DHT22;4949;48.482;9.206;2023-04-24T21:42:45;9.80;72.00
9820;DHT22;4949;48.482;9.206;2023-04-24T21:47:48;9.90;71.00
9820;DHT22;4949;48.482;9.206;2023-04-24T21:52:49;9.90;71.20
9820;DHT22;4949;48.482;9.206;2023-04-24T21:57:55;10.00;70.00
9820;DHT22;4949;48.482;9.206;2023-04-24T22:02:55;9.80;69.20
9820;DHT22;4949;48.482;9.206;2023-04-24T22:08:00;9.80;69.00
9820;DHT22;4949;48.482;9.206;2023-04-24T22:13:03;9.80;69.00
9820;DHT22;4949;48.482;9.206;2023-04-24T22:18:06;9.80;69.10
9820;DHT22;4949;48.482;9.206;2023-04-24T22:23:07;9.70;69.10
9820;DHT22;4949;48.482;9.206;2023-04-24T22:28:08;9.70;69.00
9820;DHT22;4949;48.482;9.206;2023-04-24T22:33:11;9.70;69.00
9820;DHT22;4949;48.482;9.206;2023-04-24T22:38:13;9.70;68.70
9820;DHT22;4949;48.482;9.206;2023-04-24T22:43:14;9.60;68.30
9820;DHT22;4949;48.482;9.206;2023-04-24T22:48:16;9.70;68.20
9820;DHT22;4949;48.482;9.206;2023-04-24T22:53:18;9.70;69.50
9820;DHT22;4949;48.482;9.206;2023-04-24T22:58:19;9.50;71.10
9820;DHT22;4949;48.482;9.206;2023-04-24T23:03:19;9.50;72.20
9820;DHT22;4949;48.482;9.206;2023-04-24T23:08:23;9.30;72.50
9820;DHT22;4949;48.482;9.206;2023-04-24T23:13:26;9.30;72.10
9820;DHT22;4949;48.482;9.206;2023-04-24T23:18:27;9.20;72.00
9820;DHT22;4949;48.482;9.206;2023-04-24T23:23:30;9.30;71.80
9820;DHT22;4949;48.482;9.206;2023-04-24T23:28:31;9.20;72.40
9820;DHT22;4949;48.482;9.206;2023-04-24T23:33:32;9.20;72.40
9820;DHT22;4949;48.482;9.206;2023-04-24T23:38:33;9.20;72.20
9820;DHT22;4949;48.482;9.206;2023-04-24T23:43:34;9.40;72.60
9820;DHT22;4949;48.482;9.206;2023-04-24T23:48:34;9.20;72.40
9820;DHT22;4949;48.482;9.206;2023-04-24T23:53:36;9.20;72.40
9820;DHT22;4949;48.482;9.206;2023-04-24T23:58:37;9.30;72.60
